Time;durP1;ratioP1;P1;durP2;ratioP2;P2;SDS_P1;SDS_P2;PMS_P1;PMS_P2;Temp;Humidity;BMP_temperature;BMP_pressure;BME280_temperature;BME280_humidity;BME280_pressure;Samples;Min_cycle;Max_cycle;Signal;HPM_P1;HPM_P2
2022/04/04 00:01:52;;;;;;;11.38;4.88;;;5.80;99.90;;;;;;4830068;29;20059;-92
2022/04/04 00:04:18;;;;;;;11.43;4.93;;;5.80;99.90;;;;;;4817578;29;20164;-91
2022/04/04 00:06:44;;;;;;;8.30;5.28;;;5.80;99.90;;;;;;4811680;29;20098;-90
2022/04/04 00:09:10;;;;;;;9.48;4.70;;;5.80;99.90;;;;;;4811281;29;20027;-90
2022/04/04 00:11:36;;;;;;;8.63;4.57;;;5.80;99.90;;;;;;4810660;29;20038;-90
2022/04/04 00:14:03;;;;;;;11.35;4.90;;;5.80;99.90;;;;;;4810395;29;20142;-91
2022/04/04 00:16:29;;;;;;;11.38;5.35;;;5.90;99.90;;;;;;4813237;29;20152;-91
2022/04/04 00:18:54;;;;;;;8.73;4.90;;;5.80;99.90;;;;;;4819586;29;20125;-91
2022/04/04 00:21:20;;;;;;;14.27;5.10;;;5.90;99.90;;;;;;4822119;29;20109;-90
2022/04/04 00:23:46;;;;;;;12.63;4.43;;;5.90;99.90;;;;;;4821556;29;20046;-91
2022/04/04 00:26:12;;;;;;;11.60;4.53;;;5.90;99.90;;;;;;4816397;29;20051;-91
2022/04/04 00:28:38;;;;;;;10.32;4.57;;;5.90;99.90;;;;;;4824180;29;20069;-91
2022/04/04 00:31:04;;;;;;;12.98;5.63;;;5.90;99.90;;;;;;4813828;29;20053;-90
2022/04/04 00:33:30;;;;;;;12.00;4.43;;;5.90;99.90;;;;;;4812080;29;20448;-91
2022/04/04 00:35:55;;;;;;;13.70;4.90;;;5.90;99.90;;;;;;4812151;29;20126;-90
2022/04/04 00:38:22;;;;;;;10.35;5.10;;;5.90;99.90;;;;;;4812120;29;20026;-91
2022/04/04 00:40:48;;;;;;;13.15;6.20;;;5.90;99.90;;;;;;4812764;29;20030;-90
2022/04/04 00:43:14;;;;;;;7.60;4.40;;;5.90;99.90;;;;;;4823045;29;20037;-91
2022/04/04 00:45:44;;;;;;;9.25;3.83;;;5.90;99.90;;;;;;4818991;29;20030;-88
2022/04/04 00:48:10;;;;;;;12.88;5.68;;;5.90;99.90;;;;;;4817066;29;20129;-90
2022/04/04 00:50:36;;;;;;;13.45;5.72;;;5.90;99.90;;;;;;4816157;29;20089;-91
2022/04/04 00:53:02;;;;;;;8.75;5.07;;;5.90;99.90;;;;;;4812711;29;20042;-92
2022/04/04 00:55:27;;;;;;;10.25;4.43;;;5.90;99.90;;;;;;4811609;29;20034;-92
2022/04/04 00:57:55;;;;;;;10.85;6.20;;;5.90;99.90;;;;;;4811118;29;20026;-91
2022/04/04 01:00:21;;;;;;;7.70;4.35;;;5.90;99.90;;;;;;4811464;29;20031;-92
2022/04/04 01:02:46;;;;;;;9.13;5.18;;;5.90;99.90;;;;;;4811280;29;20401;-90
2022/04/04 01:05:12;;;;;;;8.48;5.40;;;5.90;99.90;;;;;;4813310;29;20041;-90
2022/04/04 01:07:39;;;;;;;11.05;4.97;;;5.90;99.90;;;;;;4820100;29;20728;-91
2022/04/04 01:10:07;;;;;;;12.18;6.93;;;5.90;99.90;;;;;;4811908;29;20043;-90
2022/04/04 01:12:34;;;;;;;10.65;7.47;;;5.90;99.90;;;;;;4810114;29;20045;-91
2022/04/04 01:15:00;;;;;;;10.57;6.50;;;5.90;99.90;;;;;;4809963;29;20057;-90
2022/04/04 01:17:27;;;;;;;10.88;5.95;;;5.90;99.90;;;;;;4810027;29;20027;-91
2022/04/04 01:19:55;;;;;;;13.70;7.05;;;5.90;99.90;;;;;;4810278;29;20443;-92
2022/04/04 01:22:21;;;;;;;8.98;6.18;;;5.90;99.90;;;;;;4810254;29;20022;-91
2022/04/04 01:24:46;;;;;;;17.45;10.10;;;5.90;99.90;;;;;;4810034;29;20026;-90
2022/04/04 01:27:13;;;;;;;16.08;9.20;;;5.90;99.90;;;;;;4809794;29;20030;-89
2022/04/04 01:29:39;;;;;;;13.85;5.78;;;5.90;99.90;;;;;;4809788;29;20039;-91
2022/04/04 01:32:06;;;;;;;16.42;8.55;;;6.00;99.90;;;;;;4810070;29;20136;-90
2022/04/04 01:34:33;;;;;;;14.57;9.13;;;6.00;99.90;;;;;;4809783;29;20393;-91
2022/04/04 01:36:59;;;;;;;12.18;7.60;;;6.00;99.90;;;;;;4809923;29;20039;-91
2022/04/04 01:39:25;;;;;;;11.55;7.88;;;6.00;99.90;;;;;;4809096;29;20561;-90
2022/04/04 01:41:51;;;;;;;16.05;8.63;;;6.00;99.90;;;;;;4809633;29;20027;-90
2022/04/04 01:44:17;;;;;;;13.32;5.88;;;6.00;99.90;;;;;;4809292;29;20039;-89
2022/04/04 01:46:43;;;;;;;6.40;3.78;;;6.00;99.90;;;;;;4808995;29;20041;-90
2022/04/04 01:49:09;;;;;;;3.53;2.38;;;6.00;99.90;;;;;;4809412;29;20030;-89
2022/04/04 01:51:38;;;;;;;5.55;3.58;;;6.00;99.90;;;;;;4809639;29;20039;-90
2022/04/04 01:54:05;;;;;;;6.18;3.60;;;6.00;99.90;;;;;;4809900;29;20587;-89
2022/04/04 01:56:31;;;;;;;7.07;3.45;;;6.00;99.90;;;;;;4809882;29;20038;-90
2022/04/04 01:58:58;;;;;;;6.38;3.53;;;6.10;99.90;;;;;;4809995;29;20053;-91
2022/04/04 02:01:27;;;;;;;4.05;3.28;;;6.10;99.90;;;;;;4809651;29;20057;-91
2022/04/04 02:03:56;;;;;;;5.72;3.15;;;6.10;99.90;;;;;;4809074;29;20027;-91
2022/04/04 02:06:22;;;;;;;3.75;2.90;;;6.10;99.90;;;;;;4809068;29;20058;-90
2022/04/04 02:08:49;;;;;;;5.25;2.85;;;6.20;99.90;;;;;;4794227;29;20086;-91
2022/04/04 02:11:16;;;;;;;3.97;3.38;;;6.20;99.90;;;;;;4808750;29;20125;-89
2022/04/04 02:13:43;;;;;;;3.75;3.05;;;6.20;99.90;;;;;;4808658;29;20058;-90
2022/04/04 02:16:09;;;;;;;7.72;3.30;;;6.20;99.90;;;;;;4808835;29;20034;-90
2022/04/04 02:18:35;;;;;;;2.10;1.67;;;6.20;99.90;;;;;;4808685;29;20156;-91
2022/04/04 02:21:02;;;;;;;6.22;3.75;;;6.20;99.90;;;;;;4808344;29;20045;-90
2022/04/04 02:23:28;;;;;;;4.75;3.30;;;6.20;99.90;;;;;;4809620;29;20038;-89
2022/04/04 02:25:56;;;;;;;3.58;2.85;;;6.30;99.90;;;;;;4796187;29;20050;-91
2022/04/04 02:28:22;;;;;;;3.88;3.10;;;6.30;99.90;;;;;;4822951;29;20426;-90
2022/04/04 02:30:49;;;;;;;5.15;3.22;;;6.30;99.90;;;;;;4808344;29;20038;-90
2022/04/04 02:33:16;;;;;;;6.70;4.43;;;6.30;99.90;;;;;;4808390;29;20034;-90
2022/04/04 02:35:42;;;;;;;5.40;2.95;;;6.30;99.90;;;;;;4808710;29;20041;-90
2022/04/04 02:38:09;;;;;;;2.92;2.33;;;6.30;99.90;;;;;;4809016;29;20092;-91
2022/04/04 02:40:35;;;;;;;3.33;3.03;;;6.40;99.90;;;;;;4808409;29;20042;-91
2022/04/04 02:43:02;;;;;;;3.40;2.70;;;6.40;99.90;;;;;;4808912;29;20026;-91
2022/04/04 02:45:29;;;;;;;2.88;2.40;;;6.40;99.90;;;;;;4809400;29;20106;-92
2022/04/04 02:47:55;;;;;;;5.28;3.05;;;6.50;99.90;;;;;;4808918;29;20064;-91
2022/04/04 02:50:21;;;;;;;2.75;2.28;;;6.50;99.90;;;;;;4808137;29;20042;-92
2022/04/04 02:52:47;;;;;;;2.78;2.47;;;6.50;99.90;;;;;;4810582;29;20034;-90
2022/04/04 02:57:57;;;;;;;3.08;2.78;;;6.50;99.90;;;;;;4828802;29;20051;-93
2022/04/04 03:00:26;;;;;;;3.10;2.70;;;6.60;99.90;;;;;;4812532;29;20030;-93
2022/04/04 03:02:56;;;;;;;4.15;3.55;;;6.60;99.90;;;;;;4812829;29;20026;-92
2022/04/04 03:05:22;;;;;;;3.30;2.50;;;6.60;99.90;;;;;;4813165;29;20042;-92
2022/04/04 03:07:49;;;;;;;3.33;2.65;;;6.60;99.90;;;;;;4812356;29;20076;-93
2022/04/04 03:10:15;;;;;;;3.00;2.33;;;6.60;99.90;;;;;;4812492;29;20107;-94
2022/04/04 03:12:48;;;;;;;2.63;2.03;;;6.60;99.90;;;;;;4812111;29;20334;-93
2022/04/04 03:15:17;;;;;;;2.50;2.22;;;6.70;99.90;;;;;;4832545;29;20061;-92
2022/04/04 03:17:45;;;;;;;1.20;1.10;;;6.70;99.90;;;;;;4822679;29;20023;-91
2022/04/04 03:20:12;;;;;;;2.05;1.88;;;6.70;99.90;;;;;;4820134;29;20064;-92
2022/04/04 03:22:42;;;;;;;2.80;1.50;;;6.80;99.90;;;;;;4817684;29;20041;-92
2022/04/04 03:25:09;;;;;;;1.98;1.77;;;6.70;99.90;;;;;;4813440;29;20054;-91
2022/04/04 03:27:36;;;;;;;1.90;1.70;;;6.70;99.90;;;;;;4813022;29;20083;-91
2022/04/04 03:30:03;;;;;;;2.20;1.80;;;6.70;99.90;;;;;;4812429;29;20038;-92
2022/04/04 03:32:29;;;;;;;1.58;1.30;;;6.80;99.90;;;;;;4819623;29;20038;-91
2022/04/04 03:34:55;;;;;;;2.30;1.67;;;6.80;99.90;;;;;;4822127;29;20043;-91
2022/04/04 03:37:21;;;;;;;1.40;1.30;;;6.80;99.90;;;;;;4816399;29;20046;-93
2022/04/04 03:39:50;;;;;;;2.63;1.50;;;6.80;99.90;;;;;;4814853;29;20035;-92
2022/04/04 03:42:19;;;;;;;1.33;1.23;;;6.80;99.90;;;;;;4815886;29;20037;-93
2022/04/04 03:44:45;;;;;;;1.52;1.42;;;6.80;99.90;;;;;;4818351;29;20042;-91
2022/04/04 03:47:11;;;;;;;1.30;1.20;;;6.80;99.90;;;;;;4818718;29;20031;-93
2022/04/04 03:49:41;;;;;;;1.42;1.30;;;6.80;99.90;;;;;;4818011;29;20035;-92
2022/04/04 03:52:07;;;;;;;0.98;0.88;;;6.90;99.90;;;;;;4811070;29;20030;-91
2022/04/04 03:54:34;;;;;;;1.08;0.98;;;6.90;99.90;;;;;;4810963;29;20050;-92
2022/04/04 03:57:09;;;;;;;1.23;1.13;;;6.90;99.90;;;;;;4811195;29;20048;-92
2022/04/04 03:59:38;;;;;;;1.00;0.95;;;6.90;99.90;;;;;;4811302;29;20045;-93
2022/04/04 04:02:14;;;;;;;;;;;;;;;;;;;;;
2022/04/04 04:04:41;;;;;;;1.10;0.93;;;6.90;99.90;;;;;;4823015;29;20038;-91
2022/04/04 04:07:48;;;;;;;0.80;0.70;;;7.00;99.90;;;;;;4816005;29;20053;-91
2022/04/04 04:13:22;;;;;;;0.55;0.55;;;7.00;99.90;;;;;;4845243;29;20129;-91
2022/04/04 04:15:47;;;;;;;0.73;0.65;;;7.10;99.90;;;;;;4819328;29;20046;-93
2022/04/04 04:31:51;;;;;;;0.50;0.50;;;7.20;99.90;;;;;;4826290;29;20054;-92
2022/04/04 04:34:17;;;;;;;0.40;0.40;;;7.30;99.90;;;;;;4811264;29;20034;-92
2022/04/04 04:37:38;;;;;;;0.77;0.50;;;7.30;99.90;;;;;;4814224;29;20023;-90
2022/04/04 09:56:25;;;;;;;0.70;0.40;;;10.10;99.90;;;;;;4814910;29;20177;-95
2022/04/04 09:58:54;;;;;;;1.80;0.60;;;10.10;99.90;;;;;;4830762;29;20093;-92
2022/04/04 10:01:20;;;;;;;1.13;0.55;;;10.10;99.90;;;;;;4801903;29;20061;-94
2022/04/04 10:03:47;;;;;;;3.17;0.68;;;10.10;99.90;;;;;;4818569;29;20034;-93
2022/04/04 10:06:14;;;;;;;0.57;0.50;;;10.10;99.90;;;;;;4822705;29;20034;-93
2022/04/04 10:08:43;;;;;;;1.73;0.60;;;10.10;99.90;;;;;;4815419;29;20038;-93
2022/04/04 10:11:11;;;;;;;1.85;0.45;;;10.10;99.90;;;;;;4820839;29;20121;-92
2022/04/04 10:13:37;;;;;;;2.05;1.05;;;10.10;99.90;;;;;;4844304;29;20072;-94
2022/04/04 10:16:03;;;;;;;0.73;0.50;;;10.10;99.90;;;;;;4826643;29;20026;-93
2022/04/04 10:18:30;;;;;;;0.70;0.40;;;10.10;99.90;;;;;;4826440;29;20026;-95
2022/04/04 10:20:57;;;;;;;1.63;0.40;;;10.10;99.90;;;;;;4823361;29;20109;-95
2022/04/04 10:23:25;;;;;;;1.38;0.50;;;10.10;99.90;;;;;;4821772;29;20030;-94
2022/04/04 10:25:57;;;;;;;0.50;0.50;;;10.10;99.90;;;;;;4816751;29;20030;-95
2022/04/04 10:28:30;;;;;;;1.52;0.70;;;10.10;99.90;;;;;;4834202;29;20030;-95
2022/04/04 10:31:00;;;;;;;3.03;0.82;;;10.10;99.90;;;;;;4834904;29;20054;-94
2022/04/04 10:33:26;;;;;;;3.28;1.00;;;10.10;99.90;;;;;;4822147;29;20045;-95
2022/04/04 10:36:07;;;;;;;1.55;0.60;;;10.10;99.90;;;;;;4813906;29;20047;-94
2022/04/04 10:38:38;;;;;;;2.15;0.80;;;10.10;99.90;;;;;;4829522;29;20026;-95
2022/04/04 10:41:07;;;;;;;6.32;0.75;;;10.10;99.90;;;;;;4842007;29;20042;-95
2022/04/04 10:43:35;;;;;;;0.90;0.60;;;10.10;99.90;;;;;;4838823;29;20489;-94
2022/04/04 10:46:09;;;;;;;2.72;0.90;;;10.10;99.90;;;;;;4819562;29;20233;-94
2022/04/04 10:48:38;;;;;;;2.42;1.15;;;10.10;99.90;;;;;;4817297;29;20058;-95
2022/04/04 10:51:19;;;;;;;2.92;0.90;;;10.20;99.90;;;;;;4824001;29;20063;-94
2022/04/04 10:53:51;;;;;;;2.88;0.98;;;10.20;99.90;;;;;;4823578;29;20033;-94
2022/04/04 10:56:22;;;;;;;2.63;1.08;;;10.20;99.90;;;;;;4839961;29;20082;-96
2022/04/04 10:58:53;;;;;;;5.25;1.40;;;10.20;99.90;;;;;;4839830;29;20037;-95
2022/04/04 11:01:21;;;;;;;3.10;1.42;;;10.20;99.90;;;;;;4821932;29;20027;-94
2022/04/04 11:03:52;;;;;;;2.60;1.08;;;10.20;99.90;;;;;;4841741;29;20374;-95
2022/04/04 11:09:22;;;;;;;2.28;1.15;;;10.20;99.90;;;;;;4835527;29;20113;-94
2022/04/04 11:12:15;;;;;;;3.40;1.60;;;10.20;99.90;;;;;;4824172;29;20049;-94
2022/04/04 11:14:43;;;;;;;3.75;1.58;;;10.20;99.90;;;;;;4840700;29;20038;-95
2022/04/04 11:17:09;;;;;;;5.25;1.27;;;10.20;99.90;;;;;;4808120;29;20030;-94
2022/04/04 11:19:47;;;;;;;6.78;1.95;;;10.20;99.90;;;;;;4821051;29;20093;-93
2022/04/04 11:22:15;;;;;;;8.52;1.90;;;10.20;99.90;;;;;;4836017;29;20569;-93
2022/04/04 11:24:49;;;;;;;7.38;1.70;;;10.20;99.90;;;;;;4819519;29;20536;-93
2022/04/04 11:27:15;;;;;;;9.80;1.67;;;10.20;99.90;;;;;;4820007;29;20026;-94
2022/04/04 11:29:41;;;;;;;4.47;1.58;;;10.20;99.90;;;;;;4837847;29;20030;-94
2022/04/04 11:32:15;;;;;;;6.38;2.40;;;10.20;99.90;;;;;;4805628;29;20031;-92
2022/04/04 11:34:42;;;;;;;6.15;1.90;;;10.20;99.90;;;;;;4839889;29;20030;-94
2022/04/04 11:37:17;;;;;;;10.10;2.00;;;10.10;99.90;;;;;;4831223;29;20161;-93
2022/04/04 11:39:45;;;;;;;2.22;1.52;;;10.20;99.90;;;;;;4838080;29;20045;-94
2022/04/04 11:42:23;;;;;;;8.68;2.13;;;10.20;99.90;;;;;;4835322;29;20038;-95
2022/04/04 11:44:49;;;;;;;6.78;1.90;;;10.20;99.90;;;;;;4819761;29;20045;-95
2022/04/04 11:47:18;;;;;;;5.45;1.83;;;10.20;99.90;;;;;;4836645;29;20039;-94
2022/04/04 11:49:44;;;;;;;3.85;2.40;;;10.20;99.90;;;;;;4818521;29;20034;-92
2022/04/04 11:52:15;;;;;;;5.38;1.77;;;10.20;99.90;;;;;;4820800;29;20041;-95
2022/04/04 11:54:43;;;;;;;4.28;1.67;;;10.20;99.90;;;;;;4805022;29;20110;-95
2022/04/04 11:57:09;;;;;;;2.85;1.98;;;10.20;99.90;;;;;;4838362;29;20038;-96
2022/04/04 11:59:36;;;;;;;4.35;1.58;;;10.20;99.90;;;;;;4824154;29;20113;-94
2022/04/04 12:02:08;;;;;;;3.45;1.50;;;10.30;99.90;;;;;;4822597;29;20045;-94
2022/04/04 12:04:35;;;;;;;3.13;1.30;;;10.30;99.90;;;;;;4828952;29;20042;-93
2022/04/04 12:07:02;;;;;;;1.90;1.10;;;10.30;99.90;;;;;;4827885;29;20030;-96
2022/04/04 12:09:32;;;;;;;5.60;1.30;;;10.40;99.90;;;;;;4821532;29;20022;-96
2022/04/04 12:12:06;;;;;;;2.10;1.08;;;10.40;99.90;;;;;;4835187;29;20030;-94
2022/04/04 12:14:37;;;;;;;2.70;0.95;;;10.40;99.90;;;;;;4819728;29;20026;-95
2022/04/04 12:17:04;;;;;;;1.77;1.00;;;10.50;99.90;;;;;;4820101;29;20034;-95
2022/04/04 12:19:29;;;;;;;2.55;1.00;;;10.50;99.90;;;;;;4820977;29;20033;-96
2022/04/04 12:21:57;;;;;;;1.42;0.98;;;10.50;99.90;;;;;;4823881;29;20087;-96
2022/04/04 12:27:15;;;;;;;3.50;1.25;;;10.50;99.90;;;;;;4840625;29;20037;-96
2022/04/04 12:29:49;;;;;;;4.35;1.00;;;10.60;99.90;;;;;;4841588;29;20030;-96
2022/04/04 12:32:21;;;;;;;2.75;1.08;;;10.60;99.90;;;;;;4829530;29;20042;-96
2022/04/04 12:35:06;;;;;;;2.05;1.20;;;10.60;99.90;;;;;;4825128;29;20147;-96
2022/04/04 12:37:41;;;;;;;3.83;1.10;;;10.60;99.90;;;;;;4842936;29;20026;-95
2022/04/04 12:40:25;;;;;;;3.75;1.30;;;10.70;99.90;;;;;;4828815;29;20030;-96
2022/04/04 12:42:54;;;;;;;2.08;1.08;;;10.70;99.90;;;;;;4831356;29;20507;-96
2022/04/04 12:45:26;;;;;;;4.05;1.13;;;10.70;99.90;;;;;;4829275;29;20042;-96
2022/04/04 12:48:16;;;;;;;5.43;1.17;;;10.80;99.90;;;;;;4817087;29;20045;-96
2022/04/04 12:50:48;;;;;;;5.25;1.27;;;10.80;99.90;;;;;;4836111;29;20125;-95
2022/04/04 12:53:19;;;;;;;7.47;1.27;;;10.80;99.90;;;;;;4836288;29;20041;-96
2022/04/04 12:56:01;;;;;;;;;;;10.80;99.90;;;;;;4823041;29;20150;-96
2022/04/04 12:58:27;;;;;;;1.58;0.80;;;10.80;99.90;;;;;;4838792;29;20041;-96
2022/04/04 13:01:29;;;;;;;1.90;0.70;;;10.80;99.90;;;;;;4836361;29;20220;-96
2022/04/04 13:04:04;;;;;;;3.08;0.63;;;10.90;99.90;;;;;;4823579;29;20046;-95
2022/04/04 13:06:40;;;;;;;1.73;0.60;;;10.90;99.90;;;;;;4843017;29;20048;-95
2022/04/04 13:09:34;;;;;;;1.65;0.90;;;10.90;99.90;;;;;;4821857;29;20043;-96
2022/04/04 13:58:07;;;;;;;3.80;1.30;;;11.00;99.90;;;;;;5203657;23;20053;-95
2022/04/04 16:02:06;;;;;;;3.13;0.55;;;10.90;99.90;;;;;;5131644;24;20139;-95
2022/04/04 16:04:32;;;;;;;1.50;0.80;;;10.90;99.90;;;;;;4806944;29;20035;-95
2022/04/04 16:07:03;;;;;;;1.20;0.80;;;10.90;99.90;;;;;;4811008;29;20049;-95
2022/04/04 16:29:57;;;;;;;4.93;2.20;;;10.90;99.90;;;;;;4868116;24;20076;-96
2022/04/04 16:32:24;;;;;;;4.43;1.48;;;10.90;99.90;;;;;;4854176;29;20060;-93
2022/04/04 16:35:04;;;;;;;3.65;1.38;;;10.90;99.90;;;;;;4838873;29;20101;-94
2022/04/04 16:37:45;;;;;;;3.72;1.60;;;10.90;99.90;;;;;;4842084;29;20101;-96
2022/04/04 16:41:08;;;;;;;1.52;0.90;;;10.80;99.90;;;;;;4843461;29;20046;-96
2022/04/04 16:43:34;;;;;;;1.20;1.00;;;10.80;99.90;;;;;;4838596;29;20055;-93
2022/04/04 16:45:59;;;;;;;0.95;0.73;;;10.80;99.90;;;;;;4839004;29;20038;-93
2022/04/04 16:48:31;;;;;;;1.27;0.80;;;10.80;99.90;;;;;;4832481;29;20030;-94
2022/04/04 16:50:57;;;;;;;1.67;1.45;;;10.70;99.90;;;;;;4833477;29;20710;-93
2022/04/04 18:58:38;;;;;;;3.33;1.58;;;9.90;99.90;;;;;;5006498;24;20061;-91
2022/04/04 19:01:03;;;;;;;2.92;1.33;;;9.90;99.90;;;;;;4814573;29;20022;-93
2022/04/04 19:03:29;;;;;;;4.05;1.30;;;9.90;99.90;;;;;;4823961;29;20026;-93
2022/04/04 19:05:55;;;;;;;4.47;1.23;;;9.90;99.90;;;;;;4823945;29;20030;-93
2022/04/04 19:10:50;;;;;;;4.38;1.50;;;9.90;99.90;;;;;;4805058;29;20062;-93
2022/04/04 19:25:07;;;;;;;3.17;1.83;;;9.80;99.90;;;;;;4852586;29;20057;-95
2022/04/04 19:27:36;;;;;;;3.58;1.48;;;9.80;99.90;;;;;;4844193;29;20057;-94
2022/04/04 19:30:04;;;;;;;6.93;1.80;;;9.80;99.90;;;;;;4848487;29;20503;-93
2022/04/04 19:32:34;;;;;;;3.05;1.50;;;9.80;99.90;;;;;;4864689;29;20056;-92
2022/04/04 19:35:02;;;;;;;3.30;1.90;;;9.80;99.90;;;;;;4850797;29;20018;-91
2022/04/04 19:37:28;;;;;;;7.65;1.90;;;9.80;99.90;;;;;;4847892;29;20037;-92
2022/04/04 19:39:54;;;;;;;6.35;2.13;;;9.80;99.90;;;;;;4857721;29;20056;-92
2022/04/04 19:42:35;;;;;;;4.22;1.70;;;9.80;99.90;;;;;;4857091;29;20048;-94
2022/04/04 19:45:12;;;;;;;4.97;1.67;;;9.80;99.90;;;;;;4834614;29;20038;-95
2022/04/04 19:47:40;;;;;;;5.28;2.22;;;9.80;99.90;;;;;;4852880;29;20082;-93
2022/04/04 19:50:10;;;;;;;4.82;1.60;;;9.70;99.90;;;;;;4839412;29;20048;-92
2022/04/04 19:52:39;;;;;;;3.07;1.33;;;9.70;99.90;;;;;;4836316;29;20025;-93
2022/04/04 19:55:15;;;;;;;2.78;2.00;;;9.70;99.90;;;;;;4853981;29;20498;-94
2022/04/04 19:57:41;;;;;;;1.77;1.05;;;9.70;99.90;;;;;;4835573;29;20499;-94
2022/04/04 20:00:09;;;;;;;4.30;2.13;;;9.70;99.90;;;;;;4850306;29;20050;-95
2022/04/04 20:02:40;;;;;;;7.55;3.85;;;9.70;99.90;;;;;;4840395;29;20022;-93
2022/04/04 20:05:11;;;;;;;4.03;1.70;;;9.70;99.90;;;;;;4855019;29;20030;-93
2022/04/04 20:07:40;;;;;;;6.05;1.70;;;9.70;99.90;;;;;;4851318;29;20033;-93
2022/04/04 20:10:12;;;;;;;5.65;2.63;;;9.70;99.90;;;;;;4854240;29;20052;-93
2022/04/04 20:12:39;;;;;;;4.18;1.90;;;9.60;99.90;;;;;;4860483;29;20030;-94
2022/04/04 20:15:11;;;;;;;1.70;1.40;;;9.70;99.90;;;;;;4853299;29;20018;-93
2022/04/04 20:17:38;;;;;;;5.70;2.25;;;9.60;99.90;;;;;;4851376;29;20042;-93
2022/04/04 20:20:04;;;;;;;4.38;1.50;;;9.60;99.90;;;;;;4832592;29;20054;-92
2022/04/04 20:22:30;;;;;;;5.70;1.90;;;9.60;99.90;;;;;;4848645;29;20026;-95
2022/04/04 20:24:56;;;;;;;2.13;1.30;;;9.60;99.90;;;;;;4859477;29;20050;-92
2022/04/04 20:27:21;;;;;;;7.78;2.20;;;9.60;99.90;;;;;;4840766;29;20109;-90
2022/04/04 20:29:47;;;;;;;5.35;2.20;;;9.60;99.90;;;;;;4823344;29;20065;-93
2022/04/04 20:32:13;;;;;;;8.32;2.15;;;9.60;99.90;;;;;;4861866;29;20032;-93
2022/04/04 20:34:39;;;;;;;6.03;2.20;;;9.60;99.90;;;;;;4852854;29;20026;-94
2022/04/04 20:37:08;;;;;;;4.65;1.85;;;9.60;99.90;;;;;;4838415;29;20038;-94
2022/04/04 20:39:36;;;;;;;9.48;2.42;;;9.60;99.90;;;;;;4838016;29;20041;-91
2022/04/04 20:42:05;;;;;;;7.03;2.20;;;9.60;99.90;;;;;;4843713;29;20483;-95
2022/04/04 20:44:31;;;;;;;6.00;2.55;;;9.60;99.90;;;;;;4839568;29;20092;-93
2022/04/04 20:46:59;;;;;;;6.65;2.53;;;9.60;99.90;;;;;;4839427;29;20054;-92
2022/04/04 20:49:26;;;;;;;9.90;2.58;;;9.60;99.90;;;;;;4847893;29;20045;-95
2022/04/04 20:51:51;;;;;;;6.80;2.50;;;9.50;99.90;;;;;;4852908;29;20053;-94
2022/04/04 20:54:20;;;;;;;7.63;2.50;;;9.50;99.90;;;;;;4834474;29;20033;-94
2022/04/04 20:56:45;;;;;;;4.20;2.03;;;9.50;99.90;;;;;;4848315;29;20067;-93
2022/04/04 20:59:11;;;;;;;5.00;2.15;;;9.50;99.90;;;;;;4865380;29;20025;-93
2022/04/04 21:01:37;;;;;;;4.03;2.30;;;9.50;99.90;;;;;;4869650;29;20033;-93
2022/04/04 21:04:28;;;;;;;7.03;1.77;;;9.50;99.90;;;;;;4850054;29;20044;-92
2022/04/04 21:06:55;;;;;;;4.32;1.83;;;9.50;99.90;;;;;;4845711;29;20091;-93
2022/04/04 21:09:23;;;;;;;4.97;2.17;;;9.50;99.90;;;;;;4852581;29;20045;-94
2022/04/04 21:11:49;;;;;;;4.43;1.92;;;9.50;99.90;;;;;;4855677;29;20049;-93
2022/04/04 21:14:19;;;;;;;5.15;1.50;;;9.50;99.90;;;;;;4839120;29;20058;-94
2022/04/04 21:16:45;;;;;;;3.03;1.38;;;9.50;99.90;;;;;;4824141;29;20049;-96
2022/04/04 21:19:23;;;;;;;2.58;1.20;;;9.50;99.90;;;;;;4844291;29;20521;-94
2022/04/04 21:21:49;;;;;;;1.50;1.15;;;9.50;99.90;;;;;;4844744;29;20040;-95
2022/04/04 21:24:15;;;;;;;3.83;1.50;;;9.50;99.90;;;;;;4842775;29;20053;-95
2022/04/04 21:26:44;;;;;;;4.90;1.30;;;9.50;99.90;;;;;;4846899;29;20029;-95
2022/04/04 21:29:11;;;;;;;4.07;1.90;;;9.50;99.90;;;;;;4818846;29;20355;-93
2022/04/04 21:31:39;;;;;;;2.25;1.20;;;9.40;99.90;;;;;;4842911;29;20042;-93
2022/04/04 21:34:05;;;;;;;4.90;1.77;;;9.40;99.90;;;;;;4860897;29;20053;-94
2022/04/04 21:36:31;;;;;;;6.25;1.73;;;9.50;99.90;;;;;;4844358;29;20112;-94
2022/04/04 21:38:58;;;;;;;3.65;1.60;;;9.40;99.90;;;;;;4859240;29;20034;-95
2022/04/04 21:41:24;;;;;;;5.18;1.80;;;9.50;99.90;;;;;;4861130;29;20443;-94
2022/04/04 21:43:49;;;;;;;5.80;2.10;;;9.40;99.90;;;;;;4835256;29;20033;-95
2022/04/04 21:46:18;;;;;;;6.28;2.30;;;9.40;99.90;;;;;;4854780;29;20036;-94
2022/04/04 21:48:47;;;;;;;3.70;2.08;;;9.40;99.90;;;;;;4853204;29;20025;-94
2022/04/04 21:51:17;;;;;;;6.63;2.57;;;9.40;99.90;;;;;;4841457;29;20046;-92
2022/04/04 21:53:43;;;;;;;2.60;1.67;;;9.40;99.90;;;;;;4846603;29;20033;-93
2022/04/04 21:56:11;;;;;;;6.57;2.25;;;9.40;99.90;;;;;;4862115;29;20052;-94
2022/04/04 21:58:36;;;;;;;5.60;2.17;;;9.40;99.90;;;;;;4841376;29;20033;-94
2022/04/04 22:01:02;;;;;;;2.97;1.95;;;9.40;99.90;;;;;;4856172;29;20085;-94
2022/04/04 22:03:28;;;;;;;3.90;1.90;;;9.40;99.90;;;;;;4860694;29;20051;-94
2022/04/04 22:05:54;;;;;;;8.02;2.40;;;9.40;99.90;;;;;;4863540;29;20475;-95
2022/04/04 22:08:20;;;;;;;5.80;1.90;;;9.40;99.90;;;;;;4847324;29;20155;-93
2022/04/04 22:10:46;;;;;;;5.97;1.90;;;9.40;99.90;;;;;;4846293;29;20048;-94
2022/04/04 22:13:13;;;;;;;3.83;1.70;;;9.40;99.90;;;;;;4838536;29;20026;-93
2022/04/04 22:15:39;;;;;;;4.28;1.83;;;9.40;99.90;;;;;;4845019;29;20037;-93
2022/04/04 22:18:05;;;;;;;5.30;2.50;;;9.40;99.90;;;;;;4828767;29;20045;-91
2022/04/04 22:20:31;;;;;;;2.75;1.48;;;9.40;99.90;;;;;;4860744;29;20041;-93
2022/04/04 22:22:57;;;;;;;6.43;2.20;;;9.40;99.90;;;;;;4863823;29;20049;-94
2022/04/04 22:25:22;;;;;;;4.53;1.92;;;9.40;99.90;;;;;;4871031;29;20428;-92
2022/04/04 22:27:48;;;;;;;5.75;2.08;;;9.40;99.90;;;;;;4851581;29;20531;-93
2022/04/04 22:30:14;;;;;;;5.15;1.90;;;9.40;99.90;;;;;;4848286;29;20507;-93
2022/04/04 22:32:45;;;;;;;1.77;1.45;;;9.40;99.90;;;;;;4845427;29;20066;-94
2022/04/04 22:35:11;;;;;;;;;;;9.40;99.90;;;;;;4845461;29;20055;-93
2022/04/04 22:37:38;;;;;;;3.50;1.73;;;9.40;99.90;;;;;;4846389;29;19912;-92
2022/04/04 22:40:06;;;;;;;3.17;2.00;;;9.40;99.90;;;;;;4846799;29;20060;-92
2022/04/04 22:42:33;;;;;;;5.65;2.13;;;9.40;99.90;;;;;;4855026;29;20033;-92
2022/04/04 22:44:59;;;;;;;1.60;1.23;;;9.40;99.90;;;;;;4854716;29;20059;-93
2022/04/04 22:47:25;;;;;;;6.43;2.05;;;9.40;99.90;;;;;;4851672;29;20491;-93
2022/04/04 22:49:50;;;;;;;8.10;2.15;;;9.40;99.90;;;;;;4848922;29;20039;-92
2022/04/04 22:52:16;;;;;;;2.22;1.80;;;9.40;99.90;;;;;;4847938;29;20065;-92
2022/04/04 22:54:42;;;;;;;5.85;2.33;;;9.40;99.90;;;;;;4845884;29;20515;-93
2022/04/04 22:57:08;;;;;;;2.88;1.80;;;9.40;99.90;;;;;;4845472;29;20039;-94
2022/04/04 22:59:34;;;;;;;4.68;2.15;;;9.30;99.90;;;;;;4845123;29;20031;-91
2022/04/04 23:02:00;;;;;;;7.03;2.28;;;9.40;99.90;;;;;;4846470;29;20033;-92
2022/04/04 23:04:26;;;;;;;3.90;2.30;;;9.40;99.90;;;;;;4831507;29;20029;-92
2022/04/04 23:06:51;;;;;;;2.22;1.80;;;9.40;99.90;;;;;;4848931;29;20061;-91
2022/04/04 23:09:17;;;;;;;4.63;1.83;;;9.40;99.90;;;;;;4857468;29;20040;-94
2022/04/04 23:11:43;;;;;;;4.55;2.00;;;9.40;99.90;;;;;;4851255;29;20041;-93
2022/04/04 23:14:09;;;;;;;5.03;2.55;;;9.40;99.90;;;;;;4850631;29;20046;-93
2022/04/04 23:16:35;;;;;;;8.05;2.58;;;9.40;99.90;;;;;;4848808;29;20040;-92
2022/04/04 23:19:00;;;;;;;7.07;2.35;;;9.40;99.90;;;;;;4849216;29;20476;-92
2022/04/04 23:21:26;;;;;;;5.03;2.58;;;9.40;99.90;;;;;;4848970;29;20033;-92
2022/04/04 23:23:52;;;;;;;8.85;2.72;;;9.40;99.90;;;;;;4848727;29;20049;-91
2022/04/04 23:26:17;;;;;;;4.63;3.13;;;9.30;99.90;;;;;;4848500;29;20376;-92
2022/04/04 23:28:43;;;;;;;5.18;2.75;;;9.40;99.90;;;;;;4848352;29;20030;-92
2022/04/04 23:31:09;;;;;;;9.40;3.83;;;9.40;99.90;;;;;;4848386;29;20045;-93
2022/04/04 23:33:34;;;;;;;6.38;3.72;;;9.40;99.90;;;;;;4848989;29;20026;-91
2022/04/04 23:36:00;;;;;;;7.00;3.83;;;9.30;99.90;;;;;;4848738;29;20026;-94
2022/04/04 23:38:26;;;;;;;7.05;3.20;;;9.30;99.90;;;;;;4849283;29;20041;-93
2022/04/04 23:40:51;;;;;;;6.00;3.33;;;9.30;99.90;;;;;;4848507;29;20029;-93
2022/04/04 23:43:17;;;;;;;7.72;4.22;;;9.30;99.90;;;;;;4848325;29;20122;-91
2022/04/04 23:45:43;;;;;;;13.45;4.40;;;9.40;99.90;;;;;;4848383;29;20101;-92
2022/04/04 23:48:09;;;;;;;7.25;3.78;;;9.40;99.90;;;;;;4848511;29;20065;-92
2022/04/04 23:50:35;;;;;;;10.63;3.70;;;9.40;99.90;;;;;;4847767;29;20049;-91
2022/04/04 23:53:03;;;;;;;6.57;3.72;;;9.30;99.90;;;;;;4849105;29;20033;-93
2022/04/04 23:55:29;;;;;;;10.23;3.38;;;9.30;99.90;;;;;;4856232;29;20032;-92
2022/04/04 23:57:55;;;;;;;9.38;3.00;;;9.30;99.90;;;;;;4855054;29;20033;-92
